Time;durP1;ratioP1;P1;durP2;ratioP2;P2;SDS_P1;SDS_P2;PMS_P1;PMS_P2;Temp;Humidity;BMP_temperature;BMP_pressure;BME280_temperature;BME280_humidity;BME280_pressure;Samples;Min_cycle;Max_cycle;Signal;HPM_P1;HPM_P2
2023/12/24 00:00:14;;;;;;;2.27;0.70;;;;;;;18.48;57.96;100354.13;5089413;28;20415;-58
2023/12/24 00:02:39;;;;;;;2.90;1.17;;;;;;;18.49;57.71;100350.06;5089503;28;20209;-58
2023/12/24 00:05:05;;;;;;;2.10;0.90;;;;;;;18.49;57.57;100344.34;5089666;28;20206;-58
2023/12/24 00:07:30;;;;;;;3.60;0.83;;;;;;;18.51;57.50;100347.63;5090261;28;20206;-58
2023/12/24 00:09:56;;;;;;;2.43;0.83;;;;;;;18.49;57.21;100350.06;5089678;28;20208;-59
2023/12/24 00:12:21;;;;;;;1.77;0.67;;;;;;;18.47;57.82;100358.16;5090313;28;20174;-59
2023/12/24 00:14:47;;;;;;;2.03;0.70;;;;;;;18.47;57.61;100352.44;5072328;28;20177;-58
2023/12/24 00:17:12;;;;;;;2.37;1.00;;;;;;;18.49;57.81;100354.94;5090366;28;20181;-58
2023/12/24 00:19:38;;;;;;;1.60;0.70;;;;;;;18.46;57.94;100353.66;5089310;28;20193;-58
2023/12/24 00:22:05;;;;;;;1.77;0.87;;;;;;;18.48;57.84;100348.41;5090367;28;20158;-58
2023/12/24 00:24:31;;;;;;;2.47;0.80;;;;;;;18.49;57.42;100349.22;5089163;28;20265;-58
2023/12/24 00:26:56;;;;;;;2.13;0.70;;;;;;;18.49;57.55;100346.38;5089371;28;20524;-59
2023/12/24 00:29:22;;;;;;;3.20;0.87;;;;;;;18.46;57.67;100350.81;5090470;28;20178;-58
2023/12/24 00:31:47;;;;;;;1.40;0.63;;;;;;;18.46;58.13;100350.81;5090104;28;20179;-58
2023/12/24 00:34:13;;;;;;;3.60;0.70;;;;;;;18.45;58.20;100354.88;5090096;28;20170;-58
2023/12/24 00:36:38;;;;;;;1.90;0.70;;;;;;;18.51;57.77;100355.41;5089315;28;20174;-58
2023/12/24 00:39:04;;;;;;;2.30;0.77;;;;;;;18.47;57.89;100358.16;5086713;28;20190;-58
2023/12/24 00:41:30;;;;;;;2.33;0.60;;;;;;;18.47;57.73;100354.50;5088685;28;20567;-59
2023/12/24 00:43:56;;;;;;;2.20;0.80;;;;;;;18.43;57.74;100351.59;5088945;28;20187;-58
2023/12/24 00:46:21;;;;;;;3.40;1.17;;;;;;;18.45;58.02;100354.88;5090731;28;20415;-58
2023/12/24 00:48:47;;;;;;;2.60;0.90;;;;;;;18.46;57.66;100345.09;5080402;28;20186;-58
2023/12/24 00:51:12;;;;;;;1.90;0.70;;;;;;;18.45;58.12;100342.59;5061588;28;20185;-58
2023/12/24 00:53:38;;;;;;;2.83;0.90;;;;;;;18.44;57.62;100341.78;5092713;28;20179;-58
2023/12/24 00:56:03;;;;;;;2.40;0.77;;;;;;;18.43;57.91;100331.56;5092478;28;20181;-58
2023/12/24 00:58:29;;;;;;;3.30;1.00;;;;;;;18.43;57.95;100325.84;5094156;28;20171;-58
2023/12/24 01:00:55;;;;;;;2.40;0.83;;;;;;;18.43;57.89;100327.88;5094133;28;20412;-59
2023/12/24 01:03:21;;;;;;;1.83;0.80;;;;;;;18.44;57.79;100323.81;5089607;28;20186;-58
2023/12/24 01:05:46;;;;;;;2.90;1.00;;;;;;;18.42;57.98;100329.91;5093844;28;20242;-58
2023/12/24 01:08:11;;;;;;;3.57;0.80;;;;;;;18.43;57.80;100327.88;5092901;28;20182;-58
2023/12/24 01:10:37;;;;;;;3.20;0.90;;;;;;;18.43;57.58;100325.84;5093768;28;20993;-58
2023/12/24 01:13:02;;;;;;;3.57;0.80;;;;;;;18.41;57.57;100313.97;5093821;28;20204;-58
2023/12/24 01:15:28;;;;;;;2.53;0.70;;;;;;;18.40;58.09;100312.31;5092690;28;20637;-59
2023/12/24 01:17:53;;;;;;;2.90;0.70;;;;;;;18.42;58.24;100309.88;5093834;28;20533;-58
2023/12/24 01:20:19;;;;;;;2.67;0.70;;;;;;;18.44;57.63;100309.50;5093226;28;20664;-58
2023/12/24 01:22:45;;;;;;;2.00;0.70;;;;;;;18.44;57.48;100316.06;5091691;28;20597;-58
2023/12/24 01:25:10;;;;;;;3.10;0.80;;;;;;;18.42;57.85;100326.22;5093409;28;20617;-58
2023/12/24 01:27:36;;;;;;;1.57;0.63;;;;;;;18.40;57.97;100332.31;5074025;28;20174;-58
2023/12/24 01:30:05;;;;;;;2.70;0.90;;;;;;;18.44;57.65;100335.25;5093703;28;20306;-59
2023/12/24 01:32:31;;;;;;;2.70;0.77;;;;;;;18.41;57.92;100333.97;5092620;28;20439;-58
2023/12/24 01:34:57;;;;;;;3.27;0.63;;;;;;;18.43;57.66;100322.16;5092581;28;20915;-59
2023/12/24 01:37:23;;;;;;;1.70;0.60;;;;;;;18.43;57.93;100330.72;5092826;28;20213;-58
2023/12/24 01:39:48;;;;;;;2.80;0.77;;;;;;;18.41;57.73;100339.69;5092147;28;20845;-58
2023/12/24 01:42:13;;;;;;;2.13;0.83;;;;;;;18.41;58.00;100333.16;5091008;28;20174;-58
2023/12/24 01:44:40;;;;;;;2.90;1.40;;;;;;;18.38;57.89;100320.44;5091801;28;20191;-59
2023/12/24 01:47:06;;;;;;;2.13;0.63;;;;;;;18.39;58.03;100332.69;5089355;28;20486;-59
2023/12/24 01:49:31;;;;;;;1.80;0.70;;;;;;;18.38;57.90;100333.91;5073750;28;20590;-58
2023/12/24 01:51:57;;;;;;;2.40;0.60;;;;;;;18.38;57.67;100331.88;5091616;28;20573;-59
2023/12/24 01:54:22;;;;;;;4.03;0.90;;;;;;;18.37;57.77;100335.94;5091741;28;20232;-58
2023/12/24 01:56:48;;;;;;;2.20;0.90;;;;;;;18.37;57.83;100341.63;5074350;28;20187;-58
2023/12/24 01:59:13;;;;;;;2.93;0.77;;;;;;;18.38;57.92;100348.19;5087735;28;20189;-59
2023/12/24 02:01:39;;;;;;;2.70;0.80;;;;;;;18.38;58.07;100353.91;5055705;28;20175;-58
2023/12/24 02:04:04;;;;;;;2.27;0.87;;;;;;;18.36;57.77;100344.91;5090197;28;20641;-58
2023/12/24 02:06:30;;;;;;;2.13;1.20;;;;;;;18.38;58.32;100345.34;5092691;28;20198;-58
2023/12/24 02:08:56;;;;;;;2.50;1.00;;;;;;;18.36;57.73;100337.13;5091775;28;20652;-59
2023/12/24 02:11:22;;;;;;;2.17;0.90;;;;;;;18.35;57.90;100334.66;5092918;28;20503;-58
2023/12/24 02:13:47;;;;;;;3.30;0.80;;;;;;;18.35;58.05;100341.22;5091556;28;20918;-58
2023/12/24 02:16:15;;;;;;;1.73;0.60;;;;;;;18.35;58.45;100338.34;5074316;28;20181;-58
2023/12/24 02:18:41;;;;;;;1.90;0.80;;;;;;;18.35;58.16;100344.06;5074410;28;20185;-58
2023/12/24 02:21:06;;;;;;;1.87;0.57;;;;;;;18.35;57.71;100341.22;5091790;28;20432;-58
2023/12/24 02:23:31;;;;;;;2.20;0.77;;;;;;;18.33;58.39;100348.50;5092020;28;20174;-58
2023/12/24 02:26:00;;;;;;;1.70;0.60;;;;;;;18.33;58.17;100340.78;5092383;28;20218;-58
2023/12/24 02:28:26;;;;;;;1.67;0.60;;;;;;;18.33;58.50;100326.47;5035027;28;20998;-59
2023/12/24 02:30:54;;;;;;;3.40;0.90;;;;;;;18.34;58.09;100319.56;5071152;28;20414;-59
2023/12/24 02:33:20;;;;;;;4.57;1.00;;;;;;;18.32;58.33;100313.38;5053498;28;20733;-58
2023/12/24 02:35:46;;;;;;;3.10;0.87;;;;;;;18.30;57.95;100318.63;5051729;28;20503;-58
2023/12/24 02:38:11;;;;;;;1.73;0.80;;;;;;;18.28;58.45;100315.31;5036090;28;20183;-58
2023/12/24 02:40:37;;;;;;;1.70;0.43;;;;;;;18.33;57.87;100317.91;5068403;28;20179;-58
2023/12/24 02:43:02;;;;;;;1.60;0.60;;;;;;;18.32;57.97;100309.66;5083923;28;20510;-59
2023/12/24 02:45:28;;;;;;;1.40;0.50;;;;;;;18.30;57.95;100298.63;5087268;28;20187;-59
2023/12/24 02:47:53;;;;;;;2.70;0.80;;;;;;;18.31;58.08;100296.59;5078097;28;20201;-58
2023/12/24 02:50:19;;;;;;;1.90;0.60;;;;;;;18.29;57.92;100294.09;5076888;28;20501;-58
2023/12/24 02:52:46;;;;;;;1.80;0.60;;;;;;;18.30;57.89;100297.78;5071545;28;20179;-58
2023/12/24 02:55:11;;;;;;;2.77;0.70;;;;;;;18.27;57.87;100296.50;5071191;28;20167;-59
2023/12/24 02:57:37;;;;;;;2.23;0.83;;;;;;;18.28;57.82;100298.19;5071520;28;20406;-59
2023/12/24 03:00:04;;;;;;;5.20;0.70;;;;;;;18.28;58.14;100309.59;5070142;28;20213;-58
2023/12/24 03:02:30;;;;;;;3.63;0.80;;;;;;;18.28;58.26;100301.03;5071793;28;20590;-58
2023/12/24 03:04:56;;;;;;;1.80;0.73;;;;;;;18.27;58.09;100305.06;5071329;28;20441;-58
2023/12/24 03:07:21;;;;;;;1.60;0.70;;;;;;;18.27;58.02;100307.94;5060315;28;20658;-58
2023/12/24 03:09:46;;;;;;;1.80;0.70;;;;;;;18.26;58.21;100309.16;5070160;28;20182;-58
2023/12/24 03:12:12;;;;;;;2.10;0.60;;;;;;;18.26;58.44;100300.56;5071215;28;20174;-58
2023/12/24 03:14:37;;;;;;;1.33;0.60;;;;;;;18.26;58.56;100300.56;5070862;28;20174;-59
2023/12/24 03:17:03;;;;;;;3.20;0.80;;;;;;;18.26;57.96;100300.56;5070182;28;20175;-58
2023/12/24 03:19:29;;;;;;;1.30;0.50;;;;;;;18.26;58.40;100299.75;5071228;28;20171;-58
2023/12/24 03:21:55;;;;;;;2.30;0.70;;;;;;;18.27;58.32;100293.63;5016423;28;20194;-58
2023/12/24 03:24:20;;;;;;;1.97;0.60;;;;;;;18.27;58.47;100284.25;5075555;28;20476;-58
2023/12/24 03:26:45;;;;;;;1.97;0.60;;;;;;;18.24;58.06;100283.00;5090727;28;20209;-58
2023/12/24 03:29:16;;;;;;;1.60;0.67;;;;;;;18.26;58.48;100283.44;5089468;28;20315;-58
2023/12/24 03:31:41;;;;;;;2.03;0.87;;;;;;;18.23;58.27;100307.06;5090240;28;20197;-58
2023/12/24 03:34:07;;;;;;;1.70;0.60;;;;;;;18.24;58.33;100314.44;5071178;28;20408;-59
2023/12/24 03:36:32;;;;;;;3.50;0.97;;;;;;;18.28;58.27;100315.31;5089647;28;20319;-58
2023/12/24 03:38:57;;;;;;;1.87;0.60;;;;;;;18.24;58.08;100325.84;5089445;28;20170;-58
2023/12/24 03:41:23;;;;;;;1.40;0.50;;;;;;;18.23;58.18;100317.66;5089617;28;20178;-59
2023/12/24 03:43:48;;;;;;;1.60;0.63;;;;;;;18.21;57.81;100292.31;5085578;28;20269;-59
2023/12/24 03:46:20;;;;;;;2.63;0.80;;;;;;;18.21;58.20;100289.44;5090462;28;20206;-58
2023/12/24 03:48:45;;;;;;;1.97;0.60;;;;;;;18.22;58.26;100291.09;5090437;28;20239;-58
2023/12/24 03:51:11;;;;;;;3.23;0.67;;;;;;;18.22;58.23;100296.81;5086877;28;20417;-59
2023/12/24 03:53:37;;;;;;;1.80;0.60;;;;;;;18.21;58.05;100288.66;5089871;28;20259;-59
2023/12/24 03:56:03;;;;;;;1.87;0.70;;;;;;;18.22;58.43;100290.28;5090678;28;20151;-59
2023/12/24 03:58:29;;;;;;;2.13;0.67;;;;;;;18.20;58.42;100282.09;5089763;28;20425;-59
2023/12/24 04:00:55;;;;;;;2.00;0.70;;;;;;;18.19;58.56;100271.03;5090617;28;20492;-58
2023/12/24 04:03:20;;;;;;;1.50;0.67;;;;;;;18.19;58.36;100271.88;5090692;28;20546;-58
2023/12/24 04:05:45;;;;;;;2.17;0.53;;;;;;;18.21;57.84;100275.16;5089414;28;20896;-58
2023/12/24 04:08:11;;;;;;;2.27;0.67;;;;;;;18.22;58.06;100273.94;5090382;28;20698;-59
2023/12/24 04:10:39;;;;;;;1.40;0.70;;;;;;;18.19;58.15;100266.16;5086329;28;20170;-59
2023/12/24 04:13:06;;;;;;;2.10;0.60;;;;;;;18.22;58.02;100270.28;5090384;28;20158;-58
2023/12/24 04:15:31;;;;;;;2.83;0.73;;;;;;;18.20;58.28;100264.09;5089358;28;20454;-58
2023/12/24 04:17:56;;;;;;;1.33;0.60;;;;;;;18.21;58.23;100274.34;5090530;28;20409;-58
2023/12/24 04:20:22;;;;;;;1.60;0.80;;;;;;;18.20;57.87;100264.94;5089609;28;20178;-58
2023/12/24 04:22:47;;;;;;;2.07;0.70;;;;;;;18.21;58.36;100269.44;5071545;28;20162;-58
2023/12/24 04:25:13;;;;;;;1.77;0.70;;;;;;;18.20;58.39;100252.69;5088624;28;20893;-58
2023/12/24 04:27:38;;;;;;;1.73;0.70;;;;;;;18.21;57.86;100249.44;5070891;28;20214;-59
2023/12/24 04:30:05;;;;;;;2.20;0.87;;;;;;;18.20;58.26;100256.38;5089226;28;20166;-58
2023/12/24 04:32:30;;;;;;;1.83;0.80;;;;;;;18.20;58.35;100244.94;5088306;28;20296;-58
2023/12/24 04:34:56;;;;;;;1.73;0.50;;;;;;;18.19;57.97;100245.31;5089186;28;20412;-59
2023/12/24 04:37:21;;;;;;;2.20;0.70;;;;;;;18.20;58.44;100238.38;5089401;28;20243;-58
2023/12/24 04:39:47;;;;;;;1.47;0.67;;;;;;;18.18;58.15;100226.53;5089407;28;20174;-58
2023/12/24 04:42:12;;;;;;;2.37;0.87;;;;;;;18.18;58.45;100221.66;5088720;28;20186;-58
2023/12/24 04:44:38;;;;;;;1.87;0.70;;;;;;;18.20;57.94;100210.66;5088129;28;20256;-58
2023/12/24 04:47:04;;;;;;;2.03;0.60;;;;;;;18.19;58.06;100196.75;5090209;28;20167;-59
2023/12/24 04:49:29;;;;;;;1.50;0.60;;;;;;;18.18;57.80;100184.50;5090144;28;20578;-58
2023/12/24 04:51:55;;;;;;;2.43;0.60;;;;;;;18.20;57.91;100190.66;5089175;28;20872;-58
2023/12/24 04:54:21;;;;;;;1.60;0.60;;;;;;;18.20;57.74;100206.97;5090478;28;20162;-59
2023/12/24 04:56:46;;;;;;;3.13;0.73;;;;;;;18.21;58.16;100205.78;5090247;28;20310;-59
2023/12/24 04:59:11;;;;;;;1.50;0.67;;;;;;;18.20;57.98;100204.09;5089202;28;20174;-58
2023/12/24 05:01:37;;;;;;;1.40;0.60;;;;;;;18.21;58.19;100200.88;5090061;28;20185;-59
2023/12/24 05:04:03;;;;;;;1.60;0.50;;;;;;;18.19;57.88;100191.03;5090409;28;20165;-58
2023/12/24 05:06:29;;;;;;;1.97;0.70;;;;;;;18.19;57.83;100202.47;5084986;28;20234;-59
2023/12/24 05:08:54;;;;;;;1.80;0.60;;;;;;;18.19;58.19;100197.59;5080090;28;20706;-58
2023/12/24 05:11:20;;;;;;;2.57;0.60;;;;;;;18.20;57.92;100193.50;5089457;28;20420;-59
2023/12/24 05:13:45;;;;;;;1.30;0.50;;;;;;;18.19;57.95;100205.31;5088881;28;20174;-58
2023/12/24 05:16:11;;;;;;;2.80;0.80;;;;;;;18.20;57.77;100204.09;5088822;28;20215;-59
2023/12/24 05:18:36;;;;;;;1.83;0.80;;;;;;;18.19;58.21;100191.88;5087205;28;20186;-59
2023/12/24 05:21:01;;;;;;;1.70;0.70;;;;;;;18.20;58.10;100196.38;5088097;28;20163;-59
2023/12/24 05:23:27;;;;;;;2.20;0.70;;;;;;;18.20;57.97;100190.66;5088882;28;20254;-59
2023/12/24 05:25:53;;;;;;;1.37;0.60;;;;;;;18.20;58.08;100195.53;5087263;28;20268;-59
2023/12/24 05:28:18;;;;;;;1.50;0.63;;;;;;;18.23;57.85;100191.91;5088726;28;20191;-58
2023/12/24 05:30:47;;;;;;;1.63;0.60;;;;;;;18.20;57.65;100192.66;5088745;28;20243;-59
2023/12/24 05:33:12;;;;;;;1.50;0.70;;;;;;;18.20;57.83;100190.66;5071934;28;20179;-58
2023/12/24 05:35:38;;;;;;;1.63;0.50;;;;;;;18.20;57.87;100181.25;5090526;28;20435;-59
2023/12/24 05:38:03;;;;;;;2.90;0.57;;;;;;;18.21;58.04;100180.88;5080824;28;20193;-58
2023/12/24 05:40:29;;;;;;;1.30;0.50;;;;;;;18.20;57.54;100187.78;5093434;28;20587;-59
2023/12/24 05:42:54;;;;;;;1.60;0.60;;;;;;;18.21;57.89;100189.44;5075253;28;20528;-59
2023/12/24 05:45:20;;;;;;;2.00;0.80;;;;;;;18.21;57.59;100189.44;5092120;28;20557;-59
2023/12/24 05:47:45;;;;;;;1.20;0.50;;;;;;;18.20;57.73;100199.22;5093263;28;20171;-58
2023/12/24 05:50:11;;;;;;;1.80;0.57;;;;;;;18.23;57.81;100197.63;5090272;28;20186;-58
2023/12/24 05:52:37;;;;;;;1.47;0.50;;;;;;;18.21;57.58;100195.16;5093256;28;20170;-59
2023/12/24 05:55:03;;;;;;;1.40;0.50;;;;;;;18.18;57.86;100190.22;5088848;28;20182;-59
2023/12/24 05:57:29;;;;;;;2.50;0.73;;;;;;;18.20;58.03;100182.09;5092481;28;20440;-58
2023/12/24 05:59:54;;;;;;;1.30;0.50;;;;;;;18.22;57.58;100187.41;5092934;28;20175;-59
2023/12/24 06:02:20;;;;;;;1.40;0.50;;;;;;;18.24;57.88;100180.13;5091678;28;20259;-58
2023/12/24 06:04:45;;;;;;;1.40;0.60;;;;;;;18.26;57.31;100186.25;5092818;28;20260;-59
2023/12/24 06:07:11;;;;;;;1.50;0.50;;;;;;;18.23;57.83;100191.91;5092990;28;20224;-58
2023/12/24 06:09:36;;;;;;;1.60;0.60;;;;;;;18.20;57.47;100181.25;5092112;28;20505;-58
2023/12/24 06:12:02;;;;;;;1.23;0.50;;;;;;;18.21;57.68;100172.28;5092127;28;20228;-58
2023/12/24 06:14:27;;;;;;;1.50;0.57;;;;;;;18.21;57.76;100158.00;5092542;28;20606;-59
2023/12/24 06:16:53;;;;;;;1.30;0.60;;;;;;;18.21;57.71;100149.44;5077599;28;20179;-58
2023/12/24 06:19:18;;;;;;;1.20;0.50;;;;;;;18.23;57.51;100151.91;5058747;28;20182;-59
2023/12/24 06:21:44;;;;;;;1.30;0.50;;;;;;;18.22;57.63;100148.22;5091344;28;20213;-58
2023/12/24 06:24:09;;;;;;;1.57;0.50;;;;;;;18.21;57.79;100149.44;5090756;28;20211;-58
2023/12/24 06:26:35;;;;;;;1.47;0.67;;;;;;;18.22;58.03;100139.66;5090295;28;21199;-59
2023/12/24 06:29:00;;;;;;;2.03;0.60;;;;;;;18.23;57.54;100138.47;5090777;28;20166;-58
2023/12/24 06:31:25;;;;;;;1.23;0.60;;;;;;;18.26;56.88;100139.75;5085210;28;20535;-58
2023/12/24 06:33:51;;;;;;;1.40;0.60;;;;;;;18.22;58.09;100144.56;5091523;28;20174;-58
2023/12/24 06:36:17;;;;;;;1.80;0.67;;;;;;;18.23;57.46;100147.03;5092235;28;20174;-58
2023/12/24 06:38:43;;;;;;;1.50;0.57;;;;;;;18.23;57.64;100151.91;5092376;28;20961;-58
2023/12/24 06:41:08;;;;;;;2.23;0.73;;;;;;;18.25;57.38;100140.91;5092691;28;20451;-58
2023/12/24 06:43:33;;;;;;;1.70;0.83;;;;;;;18.21;58.02;100155.16;5089424;28;20175;-58
2023/12/24 06:45:59;;;;;;;1.67;0.60;;;;;;;18.22;57.78;100153.13;5090878;28;20904;-58
2023/12/24 06:48:24;;;;;;;2.63;0.70;;;;;;;18.22;57.89;100165.38;5091418;28;20171;-58
2023/12/24 06:50:50;;;;;;;1.50;0.60;;;;;;;18.24;57.51;100151.53;5090815;28;20197;-58
2023/12/24 06:53:16;;;;;;;1.20;0.50;;;;;;;18.24;57.62;100130.69;5091414;28;20179;-59
2023/12/24 06:55:42;;;;;;;1.47;0.50;;;;;;;18.24;57.45;100137.25;5091249;28;20162;-58
2023/12/24 06:58:07;;;;;;;1.60;0.60;;;;;;;18.22;57.98;100133.94;5091595;28;20401;-58
2023/12/24 07:00:33;;;;;;;1.60;0.70;;;;;;;18.23;57.96;100137.63;5087424;28;20533;-58
2023/12/24 07:02:59;;;;;;;1.40;0.60;;;;;;;18.22;57.68;100136.00;5092204;28;20174;-58
2023/12/24 07:05:24;;;;;;;1.40;0.50;;;;;;;18.22;57.47;100125.38;5091900;28;20463;-58
2023/12/24 07:07:50;;;;;;;3.00;1.00;;;;;;;18.23;57.52;100118.47;5091656;28;20174;-58
2023/12/24 07:10:15;;;;;;;1.30;0.60;;;;;;;18.22;57.45;100118.84;5090908;28;20197;-58
2023/12/24 07:12:41;;;;;;;1.70;0.60;;;;;;;18.23;57.46;100127.03;5089443;28;20848;-59
2023/12/24 07:15:07;;;;;;;1.93;0.60;;;;;;;18.25;57.55;100115.19;5090687;28;20166;-58
2023/12/24 07:17:33;;;;;;;2.03;0.70;;;;;;;18.24;57.43;100114.41;5090379;28;20242;-58
2023/12/24 07:19:59;;;;;;;1.80;0.60;;;;;;;18.26;57.19;100119.72;5089632;28;20416;-58
2023/12/24 07:22:25;;;;;;;1.27;0.40;;;;;;;18.24;57.41;100108.69;5089819;28;20186;-58
2023/12/24 07:24:50;;;;;;;1.40;0.60;;;;;;;18.25;57.58;100121.75;5089976;28;20495;-58
2023/12/24 07:27:15;;;;;;;1.20;0.50;;;;;;;18.26;57.18;100123.41;5091245;28;20166;-58
2023/12/24 07:29:41;;;;;;;1.30;0.50;;;;;;;18.23;57.46;100124.19;5090337;28;20182;-58
2023/12/24 07:32:07;;;;;;;1.40;0.60;;;;;;;18.24;57.55;100117.25;5091279;28;20540;-58
2023/12/24 07:34:32;;;;;;;1.43;0.60;;;;;;;18.23;57.46;100118.47;5091413;28;20614;-58
2023/12/24 07:36:57;;;;;;;1.90;0.73;;;;;;;18.23;57.62;100117.63;5089968;28;20884;-58
2023/12/24 07:39:23;;;;;;;1.80;0.60;;;;;;;18.22;57.70;100104.56;5090778;28;20616;-58
2023/12/24 07:41:48;;;;;;;1.30;0.60;;;;;;;18.23;57.59;100092.75;5089992;28;20175;-58
2023/12/24 07:44:14;;;;;;;1.47;0.57;;;;;;;18.25;57.49;100098.06;5090073;28;20174;-59
2023/12/24 07:46:39;;;;;;;1.23;0.50;;;;;;;18.23;57.82;100098.47;5082641;28;20917;-58
2023/12/24 07:49:05;;;;;;;1.97;0.60;;;;;;;18.26;58.10;100100.53;5070136;28;20178;-58
2023/12/24 07:51:31;;;;;;;1.77;0.50;;;;;;;18.26;57.49;100097.69;5070129;28;20179;-58
2023/12/24 07:53:57;;;;;;;1.40;0.50;;;;;;;18.25;57.30;100098.06;5072337;28;20194;-58
2023/12/24 07:56:22;;;;;;;1.77;0.60;;;;;;;18.24;57.65;100080.09;5072017;28;20428;-59
2023/12/24 07:58:48;;;;;;;2.10;0.70;;;;;;;18.28;57.41;100092.41;5089595;28;20190;-58
2023/12/24 08:01:13;;;;;;;1.73;0.60;;;;;;;18.23;57.19;100080.47;5066972;28;20312;-58
2023/12/24 08:03:39;;;;;;;2.67;0.60;;;;;;;18.24;57.49;100084.97;5089237;28;20234;-58
2023/12/24 08:06:04;;;;;;;1.40;0.50;;;;;;;18.27;57.71;100081.38;5083850;28;20222;-59
2023/12/24 08:08:30;;;;;;;2.23;0.60;;;;;;;18.29;57.26;100088.34;5068218;28;20190;-59
2023/12/24 08:10:55;;;;;;;1.20;0.50;;;;;;;18.25;57.47;100076.03;5078607;28;20178;-58
2023/12/24 08:13:20;;;;;;;2.43;0.73;;;;;;;18.26;57.40;100082.59;5088421;28;20572;-58
2023/12/24 08:15:46;;;;;;;1.20;0.40;;;;;;;18.26;57.33;100085.44;5088505;28;20533;-59
2023/12/24 08:18:12;;;;;;;1.80;0.70;;;;;;;18.24;57.76;100100.09;5087852;28;20184;-58
2023/12/24 08:20:37;;;;;;;1.53;0.60;;;;;;;18.25;57.99;100096.03;5087537;28;20194;-58
2023/12/24 08:23:03;;;;;;;1.77;0.80;;;;;;;18.27;57.41;100096.47;5089760;28;20181;-58
2023/12/24 08:25:28;;;;;;;1.77;0.70;;;;;;;18.30;57.27;100104.28;5090414;28;20350;-58
2023/12/24 08:27:54;;;;;;;1.97;0.63;;;;;;;18.29;57.52;100116.09;5090143;28;20178;-59
2023/12/24 08:30:19;;;;;;;1.50;0.60;;;;;;;18.30;56.96;100112.00;5089169;28;20653;-58
2023/12/24 08:32:45;;;;;;;2.13;0.67;;;;;;;18.26;57.47;100114.81;5072265;28;20641;-59
2023/12/24 08:35:11;;;;;;;2.20;0.67;;;;;;;18.25;57.53;100116.03;5089531;28;20187;-59
2023/12/24 08:37:36;;;;;;;1.43;0.60;;;;;;;18.28;57.12;100114.44;5090069;28;20420;-58
2023/12/24 08:40:03;;;;;;;1.80;0.60;;;;;;;18.26;57.35;100120.53;5089662;28;20190;-58
2023/12/24 08:42:28;;;;;;;1.60;0.57;;;;;;;18.30;57.12;100127.13;5090465;28;20878;-58
2023/12/24 08:44:54;;;;;;;1.50;0.60;;;;;;;18.27;57.55;100115.66;5089027;28;20469;-58
2023/12/24 08:47:19;;;;;;;1.77;0.60;;;;;;;18.30;57.26;100123.44;5090043;28;20182;-58
2023/12/24 08:49:45;;;;;;;3.70;0.77;;;;;;;18.31;57.17;100127.97;5088994;28;20853;-58
2023/12/24 08:52:10;;;;;;;1.80;0.60;;;;;;;18.26;57.56;100131.97;5071308;28;20193;-58
2023/12/24 08:54:35;;;;;;;1.77;0.60;;;;;;;18.27;57.22;100141.38;5089882;28;20178;-58
2023/12/24 08:57:01;;;;;;;1.50;0.60;;;;;;;18.30;57.24;100157.75;5072372;28;20186;-59
2023/12/24 08:59:26;;;;;;;1.30;0.40;;;;;;;18.32;57.23;100155.34;5084814;28;20193;-58
2023/12/24 09:01:53;;;;;;;1.80;0.70;;;;;;;18.26;57.39;100157.69;5089674;28;20178;-58
2023/12/24 09:04:19;;;;;;;2.00;0.60;;;;;;;18.26;57.52;100154.81;5088944;28;20159;-58
2023/12/24 09:06:44;;;;;;;2.03;0.70;;;;;;;18.27;57.64;100159.34;5088894;28;20463;-58
2023/12/24 09:09:10;;;;;;;1.70;0.60;;;;;;;18.29;57.14;100156.94;5091919;28;20189;-58
2023/12/24 09:11:38;;;;;;;1.20;0.50;;;;;;;18.29;57.31;100162.66;5092885;28;20857;-58
2023/12/24 09:14:03;;;;;;;2.63;0.80;;;;;;;18.29;57.39;100162.66;5092543;28;20216;-58
2023/12/24 09:16:29;;;;;;;1.50;0.60;;;;;;;18.27;57.33;100164.25;5092640;28;20420;-58
2023/12/24 09:18:54;;;;;;;1.30;0.60;;;;;;;18.32;57.56;100167.63;5093368;28;20637;-59
2023/12/24 09:21:20;;;;;;;2.03;0.73;;;;;;;18.30;57.55;100163.44;5094315;28;20625;-59
2023/12/24 09:23:45;;;;;;;1.40;0.53;;;;;;;18.35;57.29;100171.75;5092819;28;20655;-58
2023/12/24 09:26:10;;;;;;;3.13;0.60;;;;;;;18.30;57.00;100166.31;5093937;28;20202;-58
2023/12/24 09:28:36;;;;;;;1.27;0.50;;;;;;;18.30;57.30;100186.31;5094017;28;20179;-58
2023/12/24 09:31:01;;;;;;;5.00;0.50;;;;;;;18.30;57.26;100166.31;5092610;28;20198;-59
2023/12/24 09:33:27;;;;;;;1.50;0.50;;;;;;;18.30;56.91;100174.88;5093752;28;20299;-58
2023/12/24 09:35:52;;;;;;;2.00;0.73;;;;;;;18.29;57.27;100156.94;5093534;28;20182;-58
2023/12/24 09:38:18;;;;;;;1.50;0.50;;;;;;;18.30;56.98;100158.56;5092924;28;20251;-58
2023/12/24 09:40:43;;;;;;;1.70;0.50;;;;;;;18.28;57.74;100160.16;5093530;28;20267;-58
2023/12/24 09:43:09;;;;;;;1.37;0.60;;;;;;;18.30;57.37;100152.88;5093149;28;20570;-59
2023/12/24 09:45:34;;;;;;;2.10;0.63;;;;;;;18.30;57.25;100155.72;5093351;28;20221;-58
2023/12/24 09:48:00;;;;;;;2.30;0.70;;;;;;;18.29;57.46;100145.50;5093615;28;20239;-58
2023/12/24 09:50:26;;;;;;;1.83;0.70;;;;;;;18.31;57.28;100147.97;5069211;28;20275;-58
2023/12/24 09:52:51;;;;;;;1.90;0.80;;;;;;;18.36;57.15;100153.41;5093060;28;20186;-58
2023/12/24 09:55:17;;;;;;;1.30;0.50;;;;;;;18.33;57.12;100151.31;5074576;28;20178;-58
2023/12/24 09:57:42;;;;;;;1.77;0.60;;;;;;;18.35;56.84;100163.16;5093135;28;20757;-58
2023/12/24 10:00:09;;;;;;;1.37;0.50;;;;;;;18.33;56.89;100155.00;5091632;28;20178;-58
2023/12/24 10:02:36;;;;;;;1.67;0.60;;;;;;;18.32;57.19;100161.91;5092040;28;20174;-58
2023/12/24 10:05:03;;;;;;;1.77;0.70;;;;;;;18.34;57.39;100156.63;5091242;28;20460;-59
2023/12/24 10:07:38;;;;;;;1.70;0.70;;;;;;;18.32;57.37;100156.19;5086195;28;20864;-58
2023/12/24 10:10:04;;;;;;;1.30;0.50;;;;;;;18.35;57.03;100154.59;5071958;28;20886;-58
2023/12/24 10:12:29;;;;;;;1.30;0.60;;;;;;;18.38;57.00;100145.25;5091867;28;20459;-59
2023/12/24 10:14:55;;;;;;;1.33;0.50;;;;;;;18.35;56.92;100146.84;5091741;28;20741;-58
2023/12/24 10:17:29;;;;;;;2.27;0.90;;;;;;;18.29;57.55;100142.66;5092906;28;20202;-58
2023/12/24 10:19:55;;;;;;;1.30;0.50;;;;;;;18.29;57.33;100136.09;5074379;28;20444;-58
2023/12/24 10:22:23;;;;;;;5.50;0.70;;;;;;;18.34;57.14;100142.34;5093199;28;20428;-58
2023/12/24 10:24:48;;;;;;;1.40;0.50;;;;;;;18.33;57.31;100140.72;5074724;28;20549;-58
2023/12/24 10:27:15;;;;;;;1.30;0.50;;;;;;;18.33;57.52;100135.00;5092127;28;20794;-58
2023/12/24 10:29:41;;;;;;;1.53;0.60;;;;;;;18.31;57.36;100131.63;5092557;28;20186;-58
2023/12/24 10:32:09;;;;;;;2.13;0.80;;;;;;;18.33;56.85;100119.88;5093334;28;20457;-58
2023/12/24 10:34:35;;;;;;;1.50;0.63;;;;;;;18.34;57.61;100130.09;5091662;28;20185;-58
2023/12/24 10:37:21;;;;;;;2.03;0.70;;;;;;;18.33;57.19;100128.44;5092542;28;21178;-58
2023/12/24 10:39:46;;;;;;;1.53;0.60;;;;;;;18.35;57.30;100138.28;5075256;28;20983;-58
2023/12/24 10:42:12;;;;;;;1.40;0.50;;;;;;;18.35;57.02;100135.41;5088817;28;20442;-58
2023/12/24 10:44:39;;;;;;;1.50;0.53;;;;;;;18.33;57.04;100135.00;5091690;28;20289;-58
2023/12/24 10:47:04;;;;;;;1.33;0.60;;;;;;;18.33;57.42;100114.16;5092616;28;20879;-59
2023/12/24 10:49:30;;;;;;;1.80;0.60;;;;;;;18.35;57.13;100126.84;5092291;28;20413;-58
2023/12/24 10:51:57;;;;;;;1.20;0.50;;;;;;;18.35;57.22;100129.72;5091772;28;20174;-59
2023/12/24 10:54:23;;;;;;;1.80;1.03;;;;;;;18.34;57.45;100135.78;5090930;28;20648;-58
2023/12/24 10:57:20;;;;;;;1.30;0.50;;;;;;;18.33;57.25;100135.00;5091453;28;20517;-59
2023/12/24 11:00:14;;;;;;;7.73;1.00;;;;;;;18.33;57.10;100140.72;5075487;28;20335;-59
2023/12/24 11:02:47;;;;;;;2.07;0.60;;;;;;;18.34;57.16;100142.34;5090917;28;20454;-58
2023/12/24 11:05:42;;;;;;;1.60;0.60;;;;;;;18.34;57.14;100130.09;5089802;28;20478;-58
2023/12/24 11:08:19;;;;;;;1.50;0.50;;;;;;;18.34;57.16;100135.78;5078253;28;20413;-58
2023/12/24 11:10:45;;;;;;;1.63;0.80;;;;;;;18.34;57.29;100127.22;5090506;28;20451;-58
2023/12/24 11:13:32;;;;;;;1.30;0.50;;;;;;;18.35;56.93;100137.44;5073595;28;20447;-58
2023/12/24 11:16:06;;;;;;;1.40;0.50;;;;;;;18.36;56.97;100127.69;5079231;28;20937;-58
2023/12/24 11:18:50;;;;;;;1.20;0.50;;;;;;;18.35;57.21;100132.56;5071443;28;20432;-58